createdAt,value
2017-07-21T00:02:02.301Z,22.50
2017-07-21T00:04:28.530Z,22.00
2017-07-21T00:06:54.718Z,22.00
2017-07-21T00:09:20.934Z,21.90
2017-07-21T00:11:47.095Z,21.90
2017-07-21T00:14:13.275Z,21.90
2017-07-21T00:16:40.245Z,21.70
2017-07-21T00:19:06.429Z,21.70
2017-07-21T00:21:32.603Z,21.80
2017-07-21T00:23:58.742Z,21.80
2017-07-21T00:26:25.806Z,21.80
2017-07-21T00:28:51.978Z,21.70
2017-07-21T00:31:18.891Z,21.70
2017-07-21T00:33:45.114Z,21.70
2017-07-21T00:36:12.067Z,21.60
2017-07-21T00:38:38.265Z,21.60
2017-07-21T00:41:04.437Z,21.70
2017-07-21T00:43:30.583Z,21.60
2017-07-21T00:45:57.486Z,21.50
2017-07-21T00:48:23.681Z,21.50
2017-07-21T00:50:49.878Z,21.40
2017-07-21T00:53:17.170Z,21.40
2017-07-21T00:55:43.329Z,21.40
2017-07-21T00:58:09.502Z,21.40
2017-07-21T01:00:35.699Z,21.40
2017-07-21T01:03:01.899Z,21.40
2017-07-21T01:05:28.090Z,21.40
2017-07-21T01:07:54.251Z,21.30
2017-07-21T01:10:20.451Z,21.20
2017-07-21T01:12:46.621Z,21.20
2017-07-21T01:15:12.862Z,21.30
2017-07-21T01:17:39.035Z,21.20
2017-07-21T01:20:05.215Z,21.30
2017-07-21T01:22:32.145Z,21.20
2017-07-21T01:24:58.354Z,21.10
2017-07-21T01:27:24.539Z,21.10
2017-07-21T01:29:51.460Z,21.20
2017-07-21T01:32:17.639Z,21.20
2017-07-21T01:34:43.813Z,21.50
2017-07-21T01:37:10.195Z,21.20
2017-07-21T01:39:36.354Z,21.20
2017-07-21T01:42:02.539Z,21.20
2017-07-21T01:44:29.567Z,21.20
2017-07-21T01:46:56.182Z,21.10
2017-07-21T01:49:22.354Z,21.10
2017-07-21T01:51:48.532Z,21.00
2017-07-21T01:54:14.738Z,21.00
2017-07-21T01:56:40.975Z,21.00
2017-07-21T01:59:07.150Z,20.50
2017-07-21T02:01:34.102Z,20.90
2017-07-21T02:04:01.022Z,20.80
2017-07-21T02:06:27.201Z,20.80
2017-07-21T02:08:53.385Z,20.80
2017-07-21T02:11:19.609Z,20.70
2017-07-21T02:13:45.770Z,20.70
2017-07-21T02:16:12.695Z,20.70
2017-07-21T02:18:38.860Z,20.70
2017-07-21T02:21:05.112Z,20.70
2017-07-21T02:23:31.276Z,20.70
2017-07-21T02:25:58.225Z,20.70
2017-07-21T02:28:24.378Z,20.70
2017-07-21T02:30:50.539Z,20.50
2017-07-21T02:33:16.746Z,20.40
2017-07-21T02:35:42.939Z,20.40
2017-07-21T02:38:09.834Z,20.50
2017-07-21T02:40:36.006Z,20.40
2017-07-21T02:43:02.266Z,20.20
2017-07-21T02:45:28.434Z,20.20
2017-07-21T02:47:54.686Z,20.10
2017-07-21T02:50:20.880Z,20.10
2017-07-21T02:52:47.025Z,20.00
2017-07-21T02:55:13.191Z,20.00
2017-07-21T02:57:40.144Z,20.00
2017-07-21T03:00:07.046Z,20.00
2017-07-21T03:02:33.216Z,20.00
2017-07-21T03:05:00.160Z,19.90
2017-07-21T03:07:27.104Z,20.00
2017-07-21T03:09:53.629Z,20.00
2017-07-21T03:12:20.547Z,20.10
2017-07-21T03:14:46.709Z,20.10
2017-07-21T03:17:14.351Z,19.90
2017-07-21T03:19:40.581Z,19.90
2017-07-21T03:22:06.762Z,19.80
2017-07-21T03:24:32.941Z,19.90
2017-07-21T03:27:00.268Z,19.70
2017-07-21T03:29:26.428Z,19.50
2017-07-21T03:31:52.571Z,19.50
2017-07-21T03:34:19.133Z,19.40
2017-07-21T03:36:46.011Z,19.50
2017-07-21T03:39:12.226Z,19.40
2017-07-21T03:41:38.391Z,19.40
2017-07-21T03:44:20.246Z,19.30
2017-07-21T03:46:46.778Z,19.20
2017-07-21T03:49:12.944Z,19.20
2017-07-21T03:51:39.890Z,19.30
2017-07-21T03:54:06.072Z,19.30
2017-07-21T03:56:32.691Z,19.40
2017-07-21T03:58:58.896Z,19.40
2017-07-21T04:01:25.840Z,19.30
2017-07-21T04:03:52.726Z,19.20
2017-07-21T04:06:18.984Z,19.10
2017-07-21T04:08:45.192Z,19.20
2017-07-21T04:11:11.417Z,19.30
2017-07-21T04:13:37.638Z,19.20
2017-07-21T04:16:03.845Z,19.30
2017-07-21T04:18:30.782Z,19.40
2017-07-21T04:20:57.765Z,19.40
2017-07-21T04:23:23.954Z,19.40
2017-07-21T04:25:50.873Z,19.40
2017-07-21T04:28:17.070Z,19.50
2017-07-21T04:30:43.227Z,19.50
2017-07-21T04:33:09.418Z,19.70
2017-07-21T04:35:35.592Z,19.70
2017-07-21T04:38:01.775Z,19.90
2017-07-21T04:40:27.953Z,19.90
2017-07-21T04:42:54.115Z,20.10
2017-07-21T04:45:20.355Z,20.50
2017-07-21T04:47:46.580Z,20.60
2017-07-21T04:50:12.753Z,20.80
2017-07-21T04:52:38.932Z,21.10
2017-07-21T04:55:05.172Z,21.20
2017-07-21T04:57:31.358Z,21.30
2017-07-21T04:59:57.544Z,21.50
2017-07-21T05:02:23.729Z,21.60
2017-07-21T05:04:50.018Z,21.80
2017-07-21T05:07:16.205Z,21.90
2017-07-21T05:09:42.418Z,21.90
2017-07-21T05:12:09.368Z,21.90
2017-07-21T05:14:35.525Z,22.00
2017-07-21T05:17:01.713Z,22.00
2017-07-21T05:19:28.662Z,22.30
2017-07-21T05:21:55.618Z,22.40
2017-07-21T05:24:21.839Z,22.30
2017-07-21T05:26:48.782Z,22.60
2017-07-21T05:29:15.710Z,22.60
2017-07-21T05:31:41.886Z,22.60
2017-07-21T05:34:08.189Z,22.60
2017-07-21T05:36:35.148Z,22.90
2017-07-21T05:39:01.309Z,23.20
2017-07-21T05:41:27.498Z,23.50
2017-07-21T05:43:53.666Z,23.60
2017-07-21T05:46:19.822Z,23.60
2017-07-21T05:48:46.006Z,23.80
2017-07-21T05:51:12.243Z,23.90
2017-07-21T05:53:38.451Z,23.80
2017-07-21T05:56:04.621Z,24.00
2017-07-21T05:58:30.766Z,24.10
2017-07-21T06:00:56.898Z,24.50
2017-07-21T06:03:23.817Z,24.60
2017-07-21T06:05:50.050Z,24.60
2017-07-21T06:08:16.190Z,24.90
2017-07-21T06:10:42.378Z,24.90
2017-07-21T06:13:08.510Z,25.00
2017-07-21T06:15:34.673Z,24.90
2017-07-21T06:18:00.855Z,24.80
2017-07-21T06:20:27.786Z,25.00
2017-07-21T06:22:53.924Z,25.00
2017-07-21T06:25:20.482Z,25.20
2017-07-21T06:27:46.658Z,25.30
2017-07-21T06:30:13.638Z,25.60
2017-07-21T06:32:40.607Z,25.70
2017-07-21T06:35:06.798Z,25.70
2017-07-21T06:37:32.969Z,25.50
2017-07-21T06:39:59.184Z,25.70
2017-07-21T06:42:25.362Z,26.10
2017-07-21T06:44:52.257Z,26.30
2017-07-21T06:47:18.467Z,26.40
2017-07-21T06:49:44.656Z,26.40
2017-07-21T06:52:11.601Z,26.40
2017-07-21T06:54:37.784Z,26.50
2017-07-21T06:57:04.012Z,26.50
2017-07-21T06:59:30.314Z,26.80
2017-07-21T07:01:56.531Z,26.90
2017-07-21T07:04:23.408Z,27.10
2017-07-21T07:06:49.610Z,27.10
2017-07-21T07:09:15.836Z,27.20
2017-07-21T07:11:57.760Z,27.40
2017-07-21T07:14:24.704Z,27.70
2017-07-21T07:16:50.948Z,27.90
2017-07-21T07:19:17.878Z,28.20
2017-07-21T07:21:44.062Z,28.30
2017-07-21T07:24:10.337Z,28.60
2017-07-21T07:26:36.955Z,28.50
2017-07-21T07:29:03.141Z,28.60
2017-07-21T07:31:29.354Z,28.60
2017-07-21T07:33:55.545Z,28.70
2017-07-21T07:36:21.752Z,28.90
2017-07-21T07:38:48.425Z,29.10
2017-07-21T07:41:14.615Z,29.20
2017-07-21T07:43:40.886Z,29.50
2017-07-21T07:46:07.802Z,29.60
2017-07-21T07:48:34.776Z,29.70
2017-07-21T07:51:00.994Z,29.70
2017-07-21T07:53:28.745Z,29.80
2017-07-21T07:55:55.298Z,30.10
2017-07-21T07:58:21.560Z,30.20
2017-07-21T08:00:47.730Z,30.60
2017-07-21T08:03:15.046Z,31.00
2017-07-21T08:05:42.026Z,31.10
2017-07-21T08:10:36.845Z,31.40
2017-07-21T08:13:03.769Z,31.20
2017-07-21T08:15:30.038Z,31.20
2017-07-21T08:17:56.220Z,31.30
2017-07-21T08:20:22.405Z,31.80
2017-07-21T08:22:48.605Z,31.80
2017-07-21T08:25:15.526Z,31.30
2017-07-21T08:27:42.397Z,31.20
2017-07-21T08:30:09.310Z,30.50
2017-07-21T08:32:35.542Z,30.30
2017-07-21T08:35:01.770Z,30.20
2017-07-21T08:37:27.926Z,29.80
2017-07-21T08:39:54.827Z,29.70
2017-07-21T08:42:21.054Z,29.70
2017-07-21T08:44:47.324Z,29.80
2017-07-21T08:47:14.327Z,30.20
2017-07-21T08:49:40.541Z,30.10
2017-07-21T08:52:06.752Z,30.50
2017-07-21T08:54:32.938Z,30.40
2017-07-21T08:57:14.109Z,30.40
2017-07-21T08:59:41.032Z,30.50
2017-07-21T09:02:07.977Z,30.80
2017-07-21T09:04:34.775Z,30.80
2017-07-21T09:07:02.498Z,30.90
2017-07-21T09:09:28.694Z,30.90
2017-07-21T09:11:54.895Z,31.00
2017-07-21T09:14:21.881Z,30.80
2017-07-21T09:16:48.092Z,30.80
2017-07-21T09:19:14.308Z,30.40
2017-07-21T09:21:40.625Z,30.30
2017-07-21T09:24:07.627Z,30.10
2017-07-21T09:26:33.867Z,29.70
2017-07-21T09:29:00.058Z,29.60
2017-07-21T09:31:26.330Z,29.90
2017-07-21T09:33:52.547Z,29.90
2017-07-21T09:36:18.749Z,30.00
2017-07-21T09:38:44.941Z,30.50
2017-07-21T09:41:11.106Z,30.80
2017-07-21T09:43:37.315Z,30.90
2017-07-21T09:46:04.242Z,31.00
2017-07-21T09:48:30.505Z,30.90
2017-07-21T09:50:56.790Z,30.90
2017-07-21T09:53:22.979Z,30.90
2017-07-21T09:55:49.179Z,30.60
2017-07-21T09:58:16.145Z,29.50
2017-07-21T10:00:42.546Z,29.50
2017-07-21T10:03:09.478Z,30.30
2017-07-21T10:05:35.780Z,30.60
2017-07-21T10:08:02.461Z,30.40
2017-07-21T10:10:29.400Z,31.20
2017-07-21T10:12:56.359Z,31.60
2017-07-21T10:15:23.317Z,31.10
2017-07-21T10:17:49.514Z,30.40
2017-07-21T10:20:15.733Z,29.80
2017-07-21T10:22:41.963Z,29.60
2017-07-21T10:25:08.203Z,30.00
2017-07-21T10:27:34.407Z,30.10
2017-07-21T10:30:00.625Z,29.90
2017-07-21T10:32:26.814Z,29.80
2017-07-21T10:34:53.035Z,30.30
2017-07-21T10:37:19.963Z,30.70
2017-07-21T10:39:46.882Z,31.00
2017-07-21T10:42:13.083Z,31.70
2017-07-21T10:44:40.116Z,31.90
2017-07-21T10:47:06.405Z,31.70
2017-07-21T10:49:32.666Z,31.70
2017-07-21T10:52:01.934Z,31.20
2017-07-21T10:54:31.674Z,30.50
2017-07-21T10:57:13.602Z,30.00
2017-07-21T10:59:39.838Z,30.00
2017-07-21T11:02:06.035Z,30.20
2017-07-21T11:04:33.334Z,30.40
2017-07-21T11:07:00.504Z,30.70
2017-07-21T11:09:27.479Z,31.10
2017-07-21T11:11:54.425Z,31.40
2017-07-21T11:14:21.352Z,31.50
2017-07-21T11:16:47.556Z,31.50
2017-07-21T11:19:13.765Z,32.20
2017-07-21T11:21:39.940Z,32.10
2017-07-21T11:24:06.165Z,32.60
2017-07-21T11:26:32.361Z,32.70
2017-07-21T11:28:58.622Z,32.80
2017-07-21T11:31:24.839Z,32.90
2017-07-21T11:33:50.987Z,32.90
2017-07-21T11:36:18.615Z,33.10
2017-07-21T11:38:44.790Z,32.80
2017-07-21T11:41:11.719Z,32.80
2017-07-21T11:43:37.919Z,32.50
2017-07-21T11:46:04.065Z,32.00
2017-07-21T11:48:30.351Z,32.20
2017-07-21T11:50:56.561Z,32.20
2017-07-21T11:53:22.756Z,32.30
2017-07-21T11:55:48.908Z,32.00
2017-07-21T11:58:15.827Z,31.90
2017-07-21T12:00:42.036Z,31.90
2017-07-21T12:03:08.286Z,31.90
2017-07-21T12:05:50.064Z,31.80
2017-07-21T12:08:16.306Z,32.30
2017-07-21T12:10:42.980Z,32.40
2017-07-21T12:13:09.257Z,32.10
2017-07-21T12:15:35.449Z,31.90
2017-07-21T12:18:01.925Z,31.90
2017-07-21T12:20:28.133Z,31.80
2017-07-21T12:22:55.058Z,31.90
2017-07-21T12:25:21.231Z,31.50
2017-07-21T12:27:47.429Z,31.50
2017-07-21T12:30:13.640Z,31.50
2017-07-21T12:32:39.814Z,31.60
2017-07-21T12:35:06.004Z,31.10
2017-07-21T12:37:32.174Z,31.10
2017-07-21T12:39:58.410Z,31.10
2017-07-21T12:42:25.302Z,31.30
2017-07-21T12:44:52.044Z,31.50
2017-07-21T12:47:18.243Z,31.50
2017-07-21T12:49:45.196Z,31.40
2017-07-21T12:52:12.126Z,31.30
2017-07-21T12:54:39.107Z,31.40
2017-07-21T12:57:05.339Z,31.60
2017-07-21T12:59:31.498Z,31.40
2017-07-21T13:01:57.689Z,31.00
2017-07-21T13:04:24.626Z,30.40
2017-07-21T13:07:05.730Z,29.90
2017-07-21T13:09:46.801Z,29.70
2017-07-21T13:12:13.002Z,29.80
2017-07-21T13:14:39.234Z,30.20
2017-07-21T13:17:05.506Z,30.60
2017-07-21T13:19:32.126Z,30.60
2017-07-21T13:21:58.258Z,31.00
2017-07-21T13:24:24.414Z,31.20
2017-07-21T13:26:50.707Z,31.10
2017-07-21T13:29:17.617Z,30.90
2017-07-21T13:31:44.796Z,30.70
2017-07-21T13:34:11.029Z,30.70
2017-07-21T13:36:37.293Z,30.70
2017-07-21T13:39:03.595Z,30.80
2017-07-21T13:41:30.047Z,30.90
2017-07-21T13:43:56.655Z,30.90
2017-07-21T13:46:22.968Z,30.80
2017-07-21T13:48:50.070Z,30.80
2017-07-21T13:51:16.262Z,30.80
2017-07-21T13:53:42.408Z,30.80
2017-07-21T13:56:08.606Z,30.80
2017-07-21T13:58:35.568Z,30.80
2017-07-21T14:01:01.791Z,30.80
2017-07-21T14:03:27.984Z,30.50
2017-07-21T14:05:54.190Z,30.50
2017-07-21T14:08:20.374Z,30.40
2017-07-21T14:10:46.559Z,30.30
2017-07-21T14:13:12.768Z,30.50
2017-07-21T14:15:38.981Z,30.30
2017-07-21T14:18:05.204Z,30.40
2017-07-21T14:20:32.178Z,30.40
2017-07-21T14:22:58.380Z,30.30
2017-07-21T14:25:24.770Z,30.30
2017-07-21T14:27:51.147Z,30.30
2017-07-21T14:30:17.383Z,30.40
2017-07-21T14:32:43.585Z,30.40
2017-07-21T14:35:10.536Z,30.20
2017-07-21T14:37:37.062Z,30.30
2017-07-21T14:40:03.353Z,30.30
2017-07-21T14:42:29.561Z,30.30
2017-07-21T14:44:55.739Z,30.20
2017-07-21T14:47:22.691Z,30.30
2017-07-21T14:49:49.613Z,30.10
2017-07-21T14:52:15.830Z,30.10
2017-07-21T14:54:42.148Z,29.90
2017-07-21T14:57:08.391Z,29.70
2017-07-21T14:59:34.578Z,29.70
2017-07-21T15:02:01.999Z,29.60
2017-07-21T15:04:28.947Z,29.60
2017-07-21T15:06:56.373Z,29.50
2017-07-21T15:09:22.595Z,29.30
2017-07-21T15:11:48.764Z,29.30
2017-07-21T15:14:15.777Z,29.20
2017-07-21T15:16:41.985Z,29.10
2017-07-21T15:19:08.175Z,29.10
2017-07-21T15:21:35.091Z,29.30
2017-07-21T15:24:01.290Z,29.20
2017-07-21T15:26:27.473Z,29.00
2017-07-21T15:28:53.692Z,28.90
2017-07-21T15:31:20.649Z,28.80
2017-07-21T15:33:46.882Z,28.90
2017-07-21T15:36:13.256Z,28.90
2017-07-21T15:38:40.301Z,28.90
2017-07-21T15:41:06.576Z,28.80
2017-07-21T15:43:32.763Z,28.80
2017-07-21T15:45:58.963Z,28.70
2017-07-21T15:48:25.539Z,28.70
2017-07-21T15:50:51.739Z,28.70
2017-07-21T15:53:17.986Z,28.70
2017-07-21T15:55:44.206Z,28.70
2017-07-21T15:58:10.404Z,28.50
2017-07-21T16:00:36.644Z,28.50
2017-07-21T16:03:02.871Z,28.40
2017-07-21T16:05:29.095Z,28.30
2017-07-21T16:07:55.296Z,28.30
2017-07-21T16:10:21.496Z,28.20
2017-07-21T16:12:47.684Z,28.20
2017-07-21T16:15:13.920Z,28.30
2017-07-21T16:17:40.085Z,28.20
2017-07-21T16:20:06.287Z,28.20
2017-07-21T16:22:33.430Z,28.10
2017-07-21T16:24:59.808Z,28.10
2017-07-21T16:27:26.864Z,28.00
2017-07-21T16:29:53.086Z,27.90
2017-07-21T16:32:19.687Z,27.90
2017-07-21T16:34:45.874Z,27.90
2017-07-21T16:37:13.281Z,27.80
2017-07-21T16:39:39.549Z,27.90
2017-07-21T16:42:05.735Z,27.80
2017-07-21T16:44:31.929Z,27.80
2017-07-21T16:46:58.258Z,27.80
2017-07-21T16:49:24.937Z,27.80
2017-07-21T16:51:51.183Z,27.80
2017-07-21T16:54:17.472Z,27.60
2017-07-21T16:56:43.663Z,27.60
2017-07-21T16:59:10.230Z,27.60
2017-07-21T17:01:38.069Z,27.50
2017-07-21T17:04:05.039Z,27.50
2017-07-21T17:06:31.250Z,27.50
2017-07-21T17:08:58.202Z,27.60
2017-07-21T17:11:25.130Z,27.40
2017-07-21T17:13:51.413Z,27.50
2017-07-21T17:16:18.349Z,27.40
2017-07-21T17:18:44.578Z,27.30
2017-07-21T17:21:10.785Z,27.20
2017-07-21T17:23:37.348Z,27.20
2017-07-21T17:26:03.590Z,27.20
2017-07-21T17:28:30.700Z,27.10
2017-07-21T17:30:56.969Z,27.10
2017-07-21T17:33:23.211Z,27.10
2017-07-21T17:35:50.916Z,27.10
2017-07-21T17:38:17.198Z,27.10
2017-07-21T17:40:43.425Z,27.10
2017-07-21T17:43:09.635Z,27.10
2017-07-21T17:45:35.884Z,27.10
2017-07-21T17:48:02.101Z,27.00
2017-07-21T17:50:28.302Z,27.00
2017-07-21T17:52:54.585Z,27.00
2017-07-21T17:55:21.455Z,26.90
2017-07-21T17:57:49.183Z,26.90
2017-07-21T18:00:15.479Z,26.90
2017-07-21T18:02:41.705Z,26.90
2017-07-21T18:05:08.053Z,26.90
2017-07-21T18:07:34.210Z,26.90
2017-07-21T18:10:00.475Z,26.90
2017-07-21T18:12:27.442Z,26.80
2017-07-21T18:14:53.677Z,26.80
2017-07-21T18:17:19.843Z,26.70
2017-07-21T18:19:46.057Z,26.70
2017-07-21T18:22:12.246Z,26.70
2017-07-21T18:24:39.170Z,26.60
2017-07-21T18:27:05.380Z,26.60
2017-07-21T18:29:31.601Z,26.60
2017-07-21T18:31:57.824Z,26.60
2017-07-21T18:34:24.021Z,26.60
2017-07-21T18:36:50.235Z,26.60
2017-07-21T18:39:17.182Z,26.50
2017-07-21T18:41:43.350Z,26.60
2017-07-21T18:44:09.557Z,26.50
2017-07-21T18:46:35.776Z,26.50
2017-07-21T18:49:01.952Z,26.60
2017-07-21T18:51:28.155Z,26.50
2017-07-21T18:53:54.345Z,26.50
2017-07-21T18:56:21.346Z,26.50
2017-07-21T18:58:47.560Z,26.40
2017-07-21T19:01:13.727Z,26.40
2017-07-21T19:03:39.954Z,26.40
2017-07-21T19:06:06.255Z,26.30
2017-07-21T19:08:32.517Z,26.30
2017-07-21T19:10:58.690Z,26.30
2017-07-21T19:13:24.957Z,26.10
2017-07-21T19:15:51.293Z,26.20
2017-07-21T19:18:17.494Z,26.20
2017-07-21T19:20:43.701Z,26.10
2017-07-21T19:23:09.891Z,26.10
2017-07-21T19:25:36.130Z,26.10
2017-07-21T19:28:03.070Z,26.00
2017-07-21T19:30:29.271Z,26.00
2017-07-21T19:32:55.519Z,26.00
2017-07-21T19:35:21.694Z,26.00
2017-07-21T19:37:47.875Z,26.00
2017-07-21T19:40:15.058Z,26.00
2017-07-21T19:42:41.320Z,26.00
2017-07-21T19:45:07.527Z,26.00
2017-07-21T19:47:33.731Z,25.90
2017-07-21T19:50:00.666Z,25.90
2017-07-21T19:52:26.929Z,25.90
2017-07-21T19:54:53.245Z,25.90
2017-07-21T19:57:20.195Z,25.80
2017-07-21T19:59:47.153Z,25.70
2017-07-21T20:02:13.364Z,25.70
2017-07-21T20:04:39.592Z,25.70
2017-07-21T20:07:06.549Z,25.70
2017-07-21T20:09:32.769Z,25.70
2017-07-21T20:11:59.748Z,25.60
2017-07-21T20:14:25.951Z,25.60
2017-07-21T20:16:52.902Z,25.60
2017-07-21T20:19:19.089Z,25.70
2017-07-21T20:21:45.293Z,25.60
2017-07-21T20:24:11.572Z,25.60
2017-07-21T20:26:38.199Z,25.60
2017-07-21T20:29:04.427Z,25.60
2017-07-21T20:31:30.690Z,25.10
2017-07-21T20:33:57.036Z,25.60
2017-07-21T20:36:24.097Z,25.60
2017-07-21T20:38:50.321Z,25.60
2017-07-21T20:41:16.541Z,25.60
2017-07-21T20:43:42.767Z,25.60
2017-07-21T20:46:08.989Z,25.60
2017-07-21T20:48:35.260Z,25.70
2017-07-21T20:51:01.465Z,25.70
2017-07-21T20:53:27.750Z,25.70
2017-07-21T20:55:54.693Z,25.70
2017-07-21T20:58:22.007Z,25.70
2017-07-21T21:00:48.188Z,25.70
2017-07-21T21:03:18.451Z,25.70
2017-07-21T21:05:45.049Z,25.70
2017-07-21T21:08:12.116Z,25.70
2017-07-21T21:10:38.315Z,25.70
2017-07-21T21:13:05.653Z,25.70
2017-07-21T21:15:31.859Z,25.60
2017-07-21T21:17:58.827Z,25.60
2017-07-21T21:20:25.355Z,25.60
2017-07-21T21:22:51.602Z,25.60
2017-07-21T21:25:17.860Z,25.60
2017-07-21T21:27:44.015Z,25.50
2017-07-21T21:30:10.594Z,25.50
2017-07-21T21:32:36.850Z,25.50
2017-07-21T21:35:03.797Z,25.60
2017-07-21T21:37:30.754Z,25.60
2017-07-21T21:39:56.963Z,25.60
2017-07-21T21:42:23.885Z,25.50
2017-07-21T21:44:50.076Z,25.60
2017-07-21T21:47:16.277Z,25.50
2017-07-21T21:49:42.453Z,25.50
2017-07-21T21:52:08.667Z,25.60
2017-07-21T21:54:34.843Z,25.60
2017-07-21T21:57:01.739Z,25.60
2017-07-21T21:59:27.929Z,25.60
2017-07-21T22:01:54.878Z,25.50
2017-07-21T22:04:21.057Z,25.50
2017-07-21T22:06:48.236Z,25.50
2017-07-21T22:09:14.489Z,25.40
2017-07-21T22:11:40.826Z,25.30
2017-07-21T22:14:07.079Z,25.20
2017-07-21T22:16:33.253Z,25.10
2017-07-21T22:19:00.236Z,25.00
2017-07-21T22:21:26.457Z,25.00
2017-07-21T22:23:52.659Z,25.00
2017-07-21T22:26:19.645Z,24.90
2017-07-21T22:28:46.780Z,24.80
2017-07-21T22:31:13.064Z,24.80
2017-07-21T22:33:41.911Z,24.80
2017-07-21T22:36:08.163Z,24.60
2017-07-21T22:38:34.508Z,24.50
2017-07-21T22:41:00.867Z,24.40
2017-07-21T22:43:27.115Z,24.30
2017-07-21T22:45:54.911Z,24.10
2017-07-21T22:48:21.646Z,24.30
2017-07-21T22:50:48.128Z,24.10
2017-07-21T22:53:15.096Z,24.00
2017-07-21T22:55:42.060Z,23.80
2017-07-21T22:58:08.254Z,23.60
2017-07-21T23:00:35.232Z,23.40
2017-07-21T23:03:01.399Z,23.30
2017-07-21T23:05:27.644Z,23.20
2017-07-21T23:07:53.921Z,23.20
2017-07-21T23:10:20.114Z,23.10
2017-07-21T23:12:46.701Z,23.00
2017-07-21T23:15:15.587Z,23.10
2017-07-21T23:17:42.200Z,23.00
2017-07-21T23:20:09.225Z,22.80
2017-07-21T23:22:36.182Z,22.60
2017-07-21T23:25:02.385Z,22.40
2017-07-21T23:27:29.618Z,22.20
2017-07-21T23:29:55.795Z,22.30
2017-07-21T23:32:22.770Z,22.20
2017-07-21T23:34:49.057Z,22.30
2017-07-21T23:37:15.232Z,22.20
2017-07-21T23:39:41.433Z,22.20
2017-07-21T23:42:08.390Z,22.40
2017-07-21T23:44:35.394Z,22.50
2017-07-21T23:47:01.562Z,22.40
2017-07-21T23:49:28.503Z,22.40
2017-07-21T23:51:55.457Z,22.30
2017-07-21T23:54:22.389Z,22.30
2017-07-21T23:56:48.949Z,22.50
2017-07-21T23:59:15.178Z,22.50
